Time;durP1;ratioP1;P1;durP2;ratioP2;P2;SDS_P1;SDS_P2;PMS_P1;PMS_P2;Temp;Humidity;BMP_temperature;BMP_pressure;BME280_temperature;BME280_humidity;BME280_pressure;Samples;Min_cycle;Max_cycle;Signal;HPM_P1;HPM_P2
2023/12/08 00:01:54;;;;;;;17.93;9.67;;;2.40;66.60;;;4.49;50.86;97058.94;5030565;28;20041;-52
2023/12/08 00:04:22;;;;;;;12.00;8.20;;;2.40;66.20;;;4.50;50.75;97050.91;5031198;28;20490;-49
2023/12/08 00:06:51;;;;;;;11.17;6.90;;;2.40;66.70;;;4.51;50.68;97018.28;5030164;28;20052;-48
2023/12/08 00:09:19;;;;;;;11.47;6.77;;;2.60;66.60;;;4.53;50.71;97034.78;5029558;28;20064;-49
2023/12/08 00:11:46;;;;;;;11.33;6.90;;;2.50;66.50;;;4.52;51.03;96996.22;5030975;28;20148;-50
2023/12/08 00:14:14;;;;;;;10.60;6.70;;;2.50;66.40;;;4.52;50.72;96988.31;5031009;28;20056;-49
2023/12/08 00:16:43;;;;;;;11.70;7.70;;;2.50;67.00;;;4.54;50.75;96978.47;5030814;28;20045;-49
2023/12/08 00:19:10;;;;;;;8.87;6.07;;;2.50;66.50;;;4.53;50.54;96960.16;5030909;28;20045;-50
2023/12/08 00:21:38;;;;;;;10.40;6.97;;;2.50;66.70;;;4.55;50.58;96950.28;5030945;28;20045;-50
2023/12/08 00:24:06;;;;;;;9.00;6.53;;;2.50;67.00;;;4.55;51.21;96979.28;5030682;28;20049;-50
2023/12/08 00:26:34;;;;;;;15.63;9.87;;;2.50;67.80;;;4.51;51.07;97012.19;5029586;28;20041;-51
2023/12/08 00:29:01;;;;;;;14.33;8.33;;;2.50;68.60;;;4.51;50.73;96980.56;5030827;28;20052;-52
2023/12/08 00:31:29;;;;;;;14.03;9.30;;;2.40;68.80;;;4.50;51.07;96989.44;5030763;28;20056;-50
2023/12/08 00:33:57;;;;;;;14.50;9.10;;;2.50;69.40;;;4.49;51.83;96932.41;5030620;28;20447;-53
2023/12/08 00:36:25;;;;;;;13.37;7.77;;;2.40;69.20;;;4.49;51.82;96945.59;5030617;28;20045;-52
2023/12/08 00:38:54;;;;;;;14.63;8.80;;;2.40;69.00;;;4.49;51.58;96966.69;5029333;28;20050;-52
2023/12/08 00:41:22;;;;;;;12.47;6.80;;;2.40;68.70;;;4.50;51.62;96947.28;5022403;28;20052;-53
2023/12/08 00:43:49;;;;;;;10.20;7.13;;;2.40;69.10;;;4.49;51.53;96930.59;5030400;28;20052;-50
2023/12/08 00:46:17;;;;;;;8.43;6.47;;;2.50;68.30;;;4.53;51.48;96957.53;5030338;28;20045;-51
2023/12/08 00:48:45;;;;;;;9.00;6.33;;;2.60;67.40;;;4.53;51.40;96963.63;5030776;28;20049;-51
2023/12/08 00:51:13;;;;;;;9.37;6.83;;;2.50;67.20;;;4.52;51.81;96969.88;5029397;28;20045;-52
2023/12/08 00:53:41;;;;;;;9.10;6.80;;;2.60;66.70;;;4.49;50.92;96949.06;5030653;28;20037;-50
2023/12/08 00:56:10;;;;;;;11.07;5.90;;;2.50;67.20;;;4.49;51.61;96946.41;5030277;28;20515;-49
2023/12/08 00:58:37;;;;;;;9.13;5.77;;;2.60;66.50;;;4.51;51.05;96936.56;5030494;28;20068;-52
2023/12/08 01:01:05;;;;;;;9.73;5.60;;;2.60;66.20;;;4.51;50.56;96930.47;5030675;28;20413;-52
2023/12/08 01:03:33;;;;;;;7.23;5.93;;;2.70;65.20;;;4.53;51.14;96936.44;5030676;28;20044;-50
2023/12/08 01:06:01;;;;;;;12.23;7.43;;;2.70;65.50;;;4.57;50.49;96936.97;5030088;28;20060;-54
2023/12/08 01:08:28;;;;;;;10.23;7.53;;;2.80;65.20;;;4.60;51.22;96918.25;5030096;28;20390;-51
2023/12/08 01:10:56;;;;;;;12.57;8.27;;;2.80;65.50;;;4.63;51.06;96905.59;5030559;28;20041;-52
2023/12/08 01:13:24;;;;;;;11.30;6.83;;;2.70;65.80;;;4.64;50.78;96888.00;5033229;28;20370;-51
2023/12/08 01:15:51;;;;;;;12.30;7.47;;;2.70;66.30;;;4.65;51.26;96903.69;5033021;28;20049;-50
2023/12/08 01:18:19;;;;;;;26.53;12.33;;;2.70;66.90;;;4.65;51.06;96918.66;5034079;28;20044;-53
2023/12/08 01:20:47;;;;;;;21.93;11.60;;;2.70;67.40;;;4.65;51.25;96923.91;5033919;28;20045;-51
2023/12/08 01:23:14;;;;;;;19.63;10.07;;;2.60;67.80;;;4.66;51.92;96921.16;5033999;28;20045;-53
2023/12/08 01:25:42;;;;;;;13.10;7.67;;;2.70;67.70;;;4.66;51.77;96939.59;5034261;28;20428;-52
2023/12/08 01:28:10;;;;;;;8.37;5.63;;;2.60;67.80;;;4.65;52.10;96948.50;5034137;28;20200;-53
2023/12/08 01:30:37;;;;;;;10.10;5.93;;;2.60;68.60;;;4.66;50.92;96936.97;5033662;28;20046;-51
2023/12/08 01:33:05;;;;;;;9.43;6.00;;;2.60;67.40;;;4.67;51.35;96941.28;5033688;28;20042;-49
2023/12/08 01:35:33;;;;;;;10.60;6.40;;;2.60;67.60;;;4.68;51.21;96927.09;5033330;28;20401;-51
2023/12/08 01:38:01;;;;;;;7.73;4.93;;;2.70;67.50;;;4.70;51.51;96925.16;5033625;28;20066;-50
2023/12/08 01:40:28;;;;;;;7.37;5.63;;;2.70;68.20;;;4.70;51.50;96917.25;5033622;28;20037;-50
2023/12/08 01:42:56;;;;;;;12.07;8.00;;;2.70;67.90;;;4.72;51.10;96927.66;5033820;28;20041;-53
2023/12/08 01:45:23;;;;;;;10.67;7.43;;;2.70;68.30;;;4.74;51.51;96928.34;5033346;28;20037;-54
2023/12/08 01:47:51;;;;;;;11.57;7.10;;;2.80;67.90;;;4.73;51.47;96924.88;5033574;28;20048;-54
2023/12/08 01:50:19;;;;;;;13.53;8.20;;;2.80;67.90;;;4.72;51.51;96923.22;5033000;28;20057;-52
2023/12/08 01:52:49;;;;;;;13.07;6.53;;;2.80;67.60;;;4.71;51.38;96924.19;5032327;28;20413;-52
2023/12/08 01:55:16;;;;;;;12.43;7.40;;;2.80;67.50;;;4.73;50.86;96934.63;5031993;28;20067;-51
2023/12/08 01:57:44;;;;;;;13.23;8.03;;;2.80;67.20;;;4.71;51.10;96921.56;5033479;28;20513;-52
2023/12/08 02:00:12;;;;;;;8.13;5.63;;;2.80;67.70;;;4.73;51.79;96909.06;5033655;28;20045;-51
2023/12/08 02:02:40;;;;;;;9.40;6.17;;;2.80;67.80;;;4.74;51.87;96917.81;5013265;28;20037;-53
2023/12/08 02:05:09;;;;;;;9.43;6.40;;;2.80;68.20;;;4.73;51.36;96910.88;5031983;28;20060;-53
2023/12/08 02:07:36;;;;;;;10.93;6.67;;;2.80;68.50;;;4.76;51.64;96904.47;5031881;28;20049;-51
2023/12/08 02:10:05;;;;;;;9.87;5.97;;;2.80;68.60;;;4.74;52.30;96913.34;5032984;28;20413;-51
2023/12/08 02:12:33;;;;;;;9.40;5.70;;;2.70;69.70;;;4.72;52.31;96904.75;5033237;28;20037;-52
2023/12/08 02:15:00;;;;;;;12.07;6.27;;;2.70;70.10;;;4.69;51.50;96912.09;5031719;28;20497;-50
2023/12/08 02:17:38;;;;;;;8.87;5.87;;;2.60;70.30;;;4.66;52.16;96900.06;5032295;28;20100;-49
2023/12/08 02:20:10;;;;;;;13.20;6.10;;;2.50;70.70;;;4.63;52.41;96900.31;5032972;28;20041;-53
2023/12/08 02:22:38;;;;;;;12.10;6.90;;;2.60;70.50;;;4.61;52.53;96889.09;5032347;28;20049;-53
2023/12/08 02:25:06;;;;;;;10.50;6.63;;;2.60;70.10;;;4.60;52.21;96905.91;5032861;28;20068;-48
2023/12/08 02:27:34;;;;;;;7.67;5.77;;;2.60;70.30;;;4.59;52.20;96900.75;5033001;28;20041;-53
2023/12/08 02:30:03;;;;;;;10.17;6.70;;;2.60;70.30;;;4.58;52.18;96901.75;5032719;28;20044;-51
2023/12/08 02:33:06;;;;;;;9.00;5.43;;;2.60;70.80;;;4.58;52.01;96899.94;5023516;28;20037;-52
2023/12/08 02:35:39;;;;;;;10.07;6.13;;;2.50;70.90;;;4.59;52.10;96901.59;5023988;28;20038;-50
2023/12/08 02:38:10;;;;;;;10.80;6.43;;;2.50;70.70;;;4.59;52.25;96903.41;5031578;28;20052;-52
2023/12/08 02:40:38;;;;;;;9.03;6.10;;;2.60;70.60;;;4.57;52.36;96907.97;5031348;28;20049;-53
2023/12/08 02:43:06;;;;;;;9.40;5.80;;;2.50;71.30;;;4.53;52.31;96902.16;5032595;28;20060;-52
2023/12/08 02:45:33;;;;;;;8.60;6.27;;;2.40;70.50;;;4.54;52.21;96912.56;5030000;28;20052;-52
2023/12/08 02:48:01;;;;;;;11.57;6.33;;;2.50;71.30;;;4.56;52.38;96909.78;5026996;28;20409;-52
2023/12/08 02:50:29;;;;;;;11.07;7.20;;;2.50;70.70;;;4.56;52.20;96909.78;5031960;28;20046;-52
2023/12/08 02:52:57;;;;;;;11.13;6.80;;;2.50;70.40;;;4.55;52.40;96908.13;5032646;28;20413;-50
2023/12/08 02:55:24;;;;;;;9.97;6.17;;;2.50;70.90;;;4.56;52.67;96908.97;5032016;28;20050;-52
2023/12/08 02:57:52;;;;;;;10.33;6.07;;;2.50;70.60;;;4.54;52.79;96907.28;5032224;28;20049;-53
2023/12/08 03:00:19;;;;;;;11.17;6.13;;;2.50;71.10;;;4.53;52.67;96895.06;5031766;28;20500;-51
2023/12/08 03:02:47;;;;;;;11.00;6.50;;;2.60;70.90;;;4.54;52.44;96886.22;5032048;28;20046;-53
2023/12/08 03:05:15;;;;;;;9.47;5.73;;;2.50;71.80;;;4.55;53.02;96889.66;5031803;28;20056;-52
2023/12/08 03:07:42;;;;;;;8.50;5.77;;;2.50;71.30;;;4.59;52.36;96900.75;5031261;28;20048;-51
2023/12/08 03:10:10;;;;;;;9.63;6.00;;;2.60;71.30;;;4.59;52.91;96880.50;5031871;28;20049;-49
2023/12/08 03:12:38;;;;;;;10.43;7.10;;;2.60;71.30;;;4.57;52.76;96860.53;5031157;28;20041;-52
2023/12/08 03:15:06;;;;;;;9.30;6.37;;;2.50;71.40;;;4.56;52.91;96866.78;5031716;28;20048;-51
2023/12/08 03:17:34;;;;;;;10.50;7.10;;;2.50;71.30;;;4.57;52.86;96871.91;5023750;28;20038;-53
2023/12/08 03:20:03;;;;;;;11.60;6.37;;;2.50;71.70;;;4.57;53.10;96869.25;5031710;28;20041;-49
2023/12/08 03:22:31;;;;;;;8.57;5.23;;;2.60;71.40;;;4.58;52.86;96857.75;5030487;28;20049;-52
2023/12/08 03:24:58;;;;;;;9.30;6.27;;;2.50;71.30;;;4.56;52.93;96837.78;5031736;28;20056;-50
2023/12/08 03:27:26;;;;;;;10.77;6.27;;;2.50;71.20;;;4.57;52.66;96850.00;5031075;28;20049;-49
2023/12/08 03:29:54;;;;;;;9.83;6.03;;;2.50;70.70;;;4.56;52.92;96841.25;5031496;28;20489;-52
2023/12/08 03:32:21;;;;;;;8.37;5.40;;;2.50;71.00;;;4.57;52.38;96856.09;5014461;28;20056;-53
2023/12/08 03:34:49;;;;;;;9.03;5.63;;;2.50;70.80;;;4.58;52.49;96880.66;5031575;28;20524;-49
2023/12/08 03:37:17;;;;;;;9.67;5.70;;;2.50;70.00;;;4.56;52.56;96864.16;5029800;28;20045;-51
2023/12/08 03:39:46;;;;;;;8.67;5.43;;;2.50;69.80;;;4.58;53.02;96878.84;5031272;28;20049;-54
2023/12/08 03:42:13;;;;;;;9.67;5.57;;;2.60;69.50;;;4.59;52.74;96890.22;5031106;28;20412;-52
2023/12/08 03:44:41;;;;;;;8.17;5.80;;;2.50;69.70;;;4.58;52.71;96875.38;5031493;28;20093;-52
2023/12/08 03:47:09;;;;;;;9.37;5.83;;;2.50;69.60;;;4.59;52.78;96867.31;5031145;28;20080;-53
2023/12/08 03:49:36;;;;;;;8.70;5.73;;;2.50;70.00;;;4.60;52.88;96849.72;5031529;28;20042;-51
2023/12/08 03:52:04;;;;;;;8.63;5.33;;;2.60;69.30;;;4.61;52.72;96843.44;5031136;28;20052;-52
2023/12/08 03:54:32;;;;;;;12.43;6.17;;;2.70;69.20;;;4.66;52.65;96841.22;5031179;28;20048;-53
2023/12/08 03:56:59;;;;;;;9.50;5.77;;;2.80;69.10;;;4.66;52.72;96849.13;5030848;28;20136;-52
2023/12/08 03:59:27;;;;;;;10.50;5.60;;;2.80;68.70;;;4.68;52.67;96868.28;5031105;28;20049;-54
2023/12/08 04:01:55;;;;;;;10.20;6.20;;;2.70;68.70;;;4.66;52.58;96876.31;5031236;28;20045;-50
2023/12/08 04:04:22;;;;;;;8.43;6.13;;;2.70;68.50;;;4.63;52.16;96879.22;5031153;28;20056;-51
2023/12/08 04:06:57;;;;;;;7.70;5.13;;;2.60;69.20;;;4.66;52.90;96880.78;5030747;28;20489;-50
2023/12/08 04:09:24;;;;;;;8.87;5.97;;;2.60;69.60;;;4.67;52.40;96882.41;5029450;28;20496;-51
2023/12/08 04:11:56;;;;;;;6.37;4.83;;;2.70;69.50;;;4.67;51.95;96880.63;5031065;28;20044;-50
2023/12/08 04:14:23;;;;;;;7.93;5.67;;;2.60;68.80;;;4.64;52.20;96880.09;5031071;28;20394;-53
2023/12/08 04:16:51;;;;;;;9.10;5.20;;;2.60;69.10;;;4.64;52.47;96882.72;5030776;28;20041;-49
2023/12/08 04:19:20;;;;;;;8.33;5.33;;;2.50;69.40;;;4.63;52.24;96892.41;5031028;28;20042;-52
2023/12/08 04:21:48;;;;;;;6.47;4.90;;;2.50;69.30;;;4.62;52.71;96890.78;5030619;28;20037;-52
2023/12/08 04:24:15;;;;;;;7.33;4.93;;;2.50;69.90;;;4.68;52.43;96889.38;5030974;28;20088;-52
2023/12/08 04:26:44;;;;;;;7.23;5.10;;;2.60;70.10;;;4.72;52.50;96882.84;5029542;28;20068;-52
2023/12/08 04:29:12;;;;;;;7.83;5.30;;;2.70;70.20;;;4.77;52.99;96888.53;5029626;28;20049;-62
2023/12/08 04:31:39;;;;;;;9.27;4.67;;;2.80;69.70;;;4.79;52.43;96893.63;5030714;28;20281;-62
2023/12/08 04:34:07;;;;;;;10.37;6.10;;;2.80;69.00;;;4.79;51.99;96897.13;5030875;28;20153;-62
2023/12/08 04:36:35;;;;;;;9.03;5.40;;;2.80;69.40;;;4.82;52.50;96874.91;5030367;28;20117;-62
2023/12/08 04:39:03;;;;;;;7.77;4.90;;;2.80;68.90;;;4.84;52.49;96854.47;5030548;28;20042;-62
2023/12/08 04:41:30;;;;;;;5.77;4.93;;;2.80;69.50;;;4.89;52.96;96873.34;5030784;28;20049;-62
2023/12/08 04:43:58;;;;;;;8.50;4.93;;;2.90;70.00;;;4.90;53.32;96872.34;5030778;28;20461;-62
2023/12/08 04:46:25;;;;;;;10.07;5.00;;;2.90;70.30;;;4.91;52.95;96885.41;5030073;28;20375;-62
2023/12/08 04:48:53;;;;;;;8.43;4.60;;;2.90;71.10;;;4.95;53.19;96874.59;5034742;28;20512;-62
2023/12/08 04:51:21;;;;;;;7.90;4.40;;;2.90;71.50;;;4.96;52.90;96865.69;5033889;28;20038;-63
2023/12/08 04:53:48;;;;;;;8.17;5.40;;;3.00;71.20;;;4.98;53.74;96859.28;5034744;28;20041;-62
2023/12/08 04:56:16;;;;;;;9.23;5.70;;;3.10;72.30;;;5.00;53.15;96864.41;5034297;28;20052;-63
2023/12/08 04:58:44;;;;;;;8.00;5.33;;;3.00;72.90;;;4.98;53.49;96851.34;5034616;28;20489;-62
2023/12/08 05:01:13;;;;;;;7.90;4.50;;;3.10;73.10;;;5.03;53.66;96854.41;5033162;28;20049;-62
2023/12/08 05:03:41;;;;;;;7.13;4.73;;;3.20;73.20;;;5.07;54.08;96845.22;5031918;28;20469;-62
2023/12/08 05:06:09;;;;;;;7.60;4.70;;;3.30;72.80;;;5.12;54.29;96839.50;5033927;28;20056;-62
2023/12/08 05:08:38;;;;;;;7.80;4.83;;;3.40;73.50;;;5.16;54.17;96840.03;5034265;28;20042;-62
2023/12/08 05:11:07;;;;;;;7.53;4.60;;;3.40;73.60;;;5.17;54.16;96829.31;5034205;28;20049;-62
2023/12/08 05:13:35;;;;;;;8.30;4.93;;;3.40;74.40;;;5.23;54.20;96818.19;5032584;28;20069;-62
2023/12/08 05:16:03;;;;;;;8.90;5.73;;;3.40;75.50;;;5.29;54.91;96811.47;5034118;28;20473;-62
2023/12/08 05:18:30;;;;;;;6.17;4.40;;;3.50;75.70;;;5.34;54.77;96814.50;5032965;28;20045;-63
2023/12/08 05:20:58;;;;;;;7.13;4.60;;;3.50;76.40;;;5.40;54.51;96813.09;5033780;28;20042;-62
2023/12/08 05:23:26;;;;;;;6.97;4.50;;;3.60;77.20;;;5.42;55.04;96817.22;5032830;28;20052;-63
2023/12/08 05:25:54;;;;;;;6.97;5.10;;;3.70;76.30;;;5.45;55.55;96822.22;5033917;28;20096;-62
2023/12/08 05:28:21;;;;;;;17.70;8.57;;;3.70;77.50;;;5.51;55.40;96824.25;5033970;28;20041;-61
2023/12/08 05:30:49;;;;;;;25.37;14.37;;;3.70;77.80;;;5.55;55.54;96824.81;5033834;28;20386;-63
2023/12/08 05:33:17;;;;;;;17.23;9.50;;;3.80;78.50;;;5.59;55.23;96828.81;5033770;28;20037;-62
2023/12/08 05:35:45;;;;;;;11.87;6.87;;;3.70;79.10;;;5.62;55.38;96825.03;5033474;28;20044;-62
2023/12/08 05:38:12;;;;;;;11.10;7.30;;;3.80;79.80;;;5.64;55.50;96829.19;5033721;28;20053;-61
2023/12/08 05:40:40;;;;;;;8.30;5.33;;;3.80;81.10;;;5.68;55.49;96832.34;5033483;28;20041;-62
2023/12/08 05:43:08;;;;;;;8.47;5.63;;;3.80;81.60;;;5.72;56.55;96825.78;5033544;28;20056;-62
2023/12/08 05:45:35;;;;;;;8.67;5.20;;;3.90;82.10;;;5.76;56.47;96835.06;5032331;28;20049;-62
2023/12/08 05:48:04;;;;;;;7.87;4.50;;;4.00;82.90;;;5.82;56.42;96833.66;5034018;28;20045;-62
2023/12/08 05:50:32;;;;;;;7.43;3.40;;;4.00;83.20;;;5.85;56.79;96831.50;5033372;28;20401;-62
2023/12/08 05:53:00;;;;;;;5.33;3.77;;;4.10;83.70;;;5.91;57.23;96840.63;5033418;28;20034;-62
2023/12/08 05:55:27;;;;;;;8.50;5.70;;;4.20;83.60;;;5.93;56.60;96841.31;5032911;28;20515;-62
2023/12/08 05:57:55;;;;;;;8.27;4.10;;;4.20;85.80;;;5.97;57.52;96848.00;5032416;28;20412;-62
2023/12/08 06:00:23;;;;;;;6.77;4.40;;;4.20;85.10;;;6.01;57.22;96854.66;5033439;28;20052;-62
2023/12/08 06:02:51;;;;;;;6.47;4.70;;;4.20;84.30;;;6.05;56.86;96856.00;5032208;28;20041;-63
2023/12/08 06:05:19;;;;;;;6.13;4.83;;;4.20;84.40;;;6.06;57.21;96867.41;5033304;28;20053;-62
2023/12/08 06:07:46;;;;;;;10.30;4.67;;;4.20;84.30;;;6.08;57.09;96868.06;5033055;28;20045;-62
2023/12/08 06:10:15;;;;;;;7.10;4.90;;;4.30;84.50;;;6.08;57.41;96866.25;5033050;28;20049;-63
2023/12/08 06:12:43;;;;;;;9.20;6.60;;;4.30;84.40;;;6.07;56.98;96869.91;5032647;28;20390;-63
2023/12/08 06:15:11;;;;;;;9.53;6.53;;;4.30;83.80;;;6.05;56.88;96857.81;5033017;28;20044;-63
2023/12/08 06:17:39;;;;;;;8.87;6.70;;;4.20;84.30;;;6.05;56.80;96860.47;5032850;28;20040;-62
2023/12/08 06:20:10;;;;;;;8.63;5.43;;;4.20;84.30;;;6.03;57.04;96860.63;5031648;28;20080;-63
2023/12/08 06:22:38;;;;;;;8.33;5.47;;;4.20;85.00;;;6.03;57.45;96850.03;5032941;28;20090;-63
2023/12/08 06:25:07;;;;;;;10.17;5.70;;;4.20;85.40;;;5.98;57.82;96860.22;5032724;28;20049;-62
2023/12/08 06:27:36;;;;;;;17.13;11.97;;;4.20;85.90;;;5.99;57.76;96861.91;5032384;28;20045;-62
2023/12/08 06:30:07;;;;;;;19.73;11.73;;;4.20;85.30;;;5.95;58.54;96857.88;5032912;28;20041;-62
2023/12/08 06:32:35;;;;;;;19.47;10.00;;;4.10;86.50;;;5.94;58.17;96853.56;5032564;28;20041;-62
2023/12/08 06:35:03;;;;;;;13.40;8.30;;;4.10;86.80;;;5.94;58.36;96860.66;5032337;28;20417;-62
2023/12/08 06:37:31;;;;;;;10.20;6.13;;;4.00;86.90;;;5.91;57.90;96859.13;5032107;28;20052;-62
2023/12/08 06:39:59;;;;;;;11.73;6.77;;;4.00;87.50;;;5.88;58.59;96859.44;5031360;28;20501;-62
2023/12/08 06:42:26;;;;;;;9.63;6.03;;;3.90;88.10;;;5.89;58.70;96854.03;5032540;28;20045;-61
2023/12/08 06:44:54;;;;;;;9.87;5.93;;;3.90;87.70;;;5.93;58.05;96857.16;5032608;28;20440;-61
2023/12/08 06:47:21;;;;;;;8.83;5.30;;;4.00;87.10;;;5.93;58.54;96851.88;5032202;28;20045;-60
2023/12/08 06:49:49;;;;;;;10.10;7.00;;;4.00;87.20;;;5.93;58.09;96859.81;5032231;28;20101;-60
2023/12/08 06:52:17;;;;;;;10.50;6.27;;;4.00;87.50;;;5.90;58.71;96860.94;5032012;28;20037;-61
2023/12/08 06:54:45;;;;;;;10.93;6.27;;;3.90;88.20;;;5.89;59.01;96861.09;5032188;28;20049;-61
2023/12/08 06:57:13;;;;;;;16.80;9.00;;;3.90;88.60;;;5.89;58.73;96864.59;5032091;28;20374;-62
2023/12/08 06:59:40;;;;;;;17.47;10.87;;;3.90;88.50;;;5.88;59.01;96860.28;5032028;28;20052;-62
2023/12/08 07:02:08;;;;;;;10.03;7.23;;;3.90;88.80;;;5.88;59.09;96862.91;5031930;28;20056;-61
2023/12/08 07:04:36;;;;;;;12.73;9.47;;;3.90;88.70;;;5.90;58.45;96868.06;5031950;28;20453;-61
2023/12/08 07:07:04;;;;;;;11.20;6.97;;;3.90;88.70;;;5.91;58.65;96864.41;5031779;28;20045;-62
2023/12/08 07:09:32;;;;;;;11.87;6.30;;;3.90;89.20;;;5.91;58.92;96864.41;5031116;28;20049;-62
2023/12/08 07:12:03;;;;;;;11.83;6.00;;;4.00;89.30;;;5.90;59.32;96866.25;5030976;28;20049;-62
2023/12/08 07:14:32;;;;;;;20.53;7.37;;;4.00;90.20;;;5.89;59.16;96863.75;5031800;28;20042;-61
2023/12/08 07:17:00;;;;;;;13.03;7.27;;;4.00;89.40;;;5.88;59.58;96870.03;5030116;28;20493;-62
2023/12/08 07:19:27;;;;;;;9.53;6.40;;;4.00;89.80;;;5.88;59.45;96862.91;5032033;28;20056;-61
2023/12/08 07:21:55;;;;;;;13.77;6.87;;;4.00;89.60;;;5.89;59.22;96861.94;5031598;28;20038;-62
2023/12/08 07:24:23;;;;;;;14.40;7.47;;;4.00;89.20;;;5.93;59.26;96859.81;5030508;28;20041;-62
2023/12/08 07:26:54;;;;;;;26.10;14.00;;;4.10;89.80;;;5.95;59.70;96859.66;5031093;28;20037;-62
2023/12/08 07:29:25;;;;;;;24.97;12.50;;;4.00;90.30;;;5.96;59.99;96859.56;5031923;28;20042;-62
2023/12/08 07:31:53;;;;;;;13.87;8.87;;;4.10;90.50;;;5.98;59.17;96854.13;5031477;28;20042;-62
2023/12/08 07:34:20;;;;;;;12.17;6.97;;;4.10;90.70;;;6.00;59.45;96858.25;5031595;28;20049;-62
2023/12/08 07:36:48;;;;;;;11.00;7.63;;;4.10;90.80;;;6.00;60.11;96862.72;5030563;28;20037;-61
2023/12/08 07:39:17;;;;;;;12.67;8.10;;;4.00;92.10;;;6.02;59.79;96858.94;5031347;28;20405;-63
2023/12/08 07:41:46;;;;;;;10.20;6.87;;;4.10;91.70;;;6.07;60.31;96861.16;5031277;28;20048;-62
2023/12/08 07:44:14;;;;;;;9.10;6.40;;;4.20;91.20;;;6.11;59.60;96860.69;5031258;28;20504;-62
2023/12/08 07:46:42;;;;;;;11.83;7.90;;;4.20;90.90;;;6.14;59.94;96864.81;5030742;28;20057;-62
2023/12/08 07:49:11;;;;;;;11.83;7.30;;;4.30;90.80;;;6.18;59.57;96873.28;5030800;28;20049;-61
2023/12/08 07:51:39;;;;;;;16.60;11.10;;;4.30;91.00;;;6.21;59.83;96875.63;5022416;28;20037;-61
2023/12/08 07:54:06;;;;;;;12.50;8.20;;;4.30;90.50;;;6.22;60.11;96877.28;5031117;28;20053;-61
2023/12/08 07:56:34;;;;;;;11.00;7.23;;;4.40;90.80;;;6.24;59.88;96873.50;5031026;28;20052;-61
2023/12/08 07:59:02;;;;;;;10.27;7.03;;;4.30;90.70;;;6.26;60.20;96883.91;5023294;28;20033;-61
2023/12/08 08:01:31;;;;;;;10.43;7.60;;;4.30;91.10;;;6.25;60.49;96892.84;5030916;28;20053;-60
2023/12/08 08:03:59;;;;;;;11.37;8.17;;;4.30;91.10;;;6.26;60.41;96894.47;5027289;28;20091;-60
2023/12/08 08:06:26;;;;;;;15.17;9.73;;;4.30;91.20;;;6.28;60.40;96887.22;5029622;28;20049;-61
2023/12/08 08:08:54;;;;;;;25.03;14.47;;;4.40;91.00;;;6.30;60.65;96899.34;5030983;28;20052;-60
2023/12/08 08:11:22;;;;;;;30.17;15.67;;;4.30;91.40;;;6.29;60.31;96900.31;5029291;28;20045;-61
2023/12/08 08:13:50;;;;;;;20.40;11.77;;;4.40;91.90;;;6.31;60.00;96889.59;5030615;28;20045;-58
2023/12/08 08:16:17;;;;;;;12.97;8.60;;;4.40;92.20;;;6.34;60.86;96899.00;5030659;28;20045;-60
2023/12/08 08:18:45;;;;;;;11.50;8.17;;;4.40;92.20;;;6.35;60.63;96898.88;5030829;28;20386;-61
2023/12/08 08:21:13;;;;;;;12.60;7.73;;;4.40;92.50;;;6.35;60.89;96901.50;5029991;28;20041;-61
2023/12/08 08:23:41;;;;;;;8.80;6.47;;;4.40;93.00;;;6.37;60.78;96901.38;5030635;28;20049;-61
2023/12/08 08:26:09;;;;;;;9.57;6.13;;;4.40;92.80;;;6.37;60.89;96911.94;5030607;28;20060;-60
2023/12/08 08:28:36;;;;;;;14.17;7.23;;;4.40;93.30;;;6.37;60.56;96904.00;5030876;28;20417;-61
2023/12/08 08:31:04;;;;;;;11.57;7.37;;;4.40;93.70;;;6.39;61.31;96913.44;5022856;28;20041;-60
2023/12/08 08:33:32;;;;;;;11.43;7.47;;;4.50;94.30;;;6.40;61.17;96916.94;5030688;28;20038;-60
2023/12/08 08:36:01;;;;;;;12.63;7.77;;;4.40;94.60;;;6.42;60.87;96912.31;5030100;28;20045;-60
2023/12/08 08:38:28;;;;;;;11.47;7.30;;;4.40;94.60;;;6.42;61.54;96912.31;5029669;28;20390;-60
2023/12/08 08:40:56;;;;;;;14.50;7.67;;;4.40;95.00;;;6.41;61.82;96922.03;5029548;28;20033;-61
2023/12/08 08:43:23;;;;;;;10.97;6.63;;;4.50;95.40;;;6.43;61.14;96919.25;5023902;28;20052;-60
2023/12/08 08:45:51;;;;;;;11.47;7.20;;;4.50;96.00;;;6.45;61.66;96918.09;5030450;28;20056;-60
2023/12/08 08:48:19;;;;;;;11.90;6.87;;;4.50;95.70;;;6.48;61.53;96920.47;5029342;28;20057;-61
2023/12/08 08:50:50;;;;;;;11.30;6.23;;;4.60;95.40;;;6.53;61.70;96917.34;5027568;28;20050;-60
2023/12/08 08:53:18;;;;;;;11.03;6.30;;;4.70;95.10;;;6.56;61.46;96919.69;5030148;28;20052;-61
2023/12/08 08:55:46;;;;;;;11.47;6.17;;;4.70;95.10;;;6.59;61.95;96918.53;5030323;28;20048;-61
2023/12/08 08:58:14;;;;;;;8.10;5.43;;;4.70;95.30;;;6.60;61.87;96915.75;5029585;28;20049;-61
2023/12/08 09:00:42;;;;;;;10.43;6.37;;;4.70;95.80;;;6.63;61.48;96922.53;5030329;28;20049;-61
2023/12/08 09:03:09;;;;;;;9.63;5.30;;;4.70;95.80;;;6.67;62.06;96924.75;5030551;28;20049;-61
2023/12/08 09:05:40;;;;;;;8.40;6.87;;;4.90;95.60;;;6.73;61.81;96920.66;5030471;28;20418;-61
2023/12/08 09:08:10;;;;;;;9.60;5.73;;;4.90;95.30;;;6.76;61.80;96924.78;5029696;28;20516;-60
2023/12/08 09:10:40;;;;;;;8.70;5.33;;;4.90;95.10;;;6.78;62.31;96928.09;5030747;28;20053;-60
2023/12/08 09:13:07;;;;;;;9.13;6.20;;;5.00;95.10;;;6.83;61.91;96925.84;5022506;28;20052;-48
2023/12/08 09:15:35;;;;;;;8.57;5.93;;;5.10;94.80;;;6.88;61.75;96929.69;5030240;28;20048;-50
2023/12/08 09:18:03;;;;;;;8.07;5.13;;;5.10;94.30;;;6.93;61.97;96936.31;5030433;28;20413;-50
2023/12/08 09:20:31;;;;;;;6.33;5.07;;;5.20;94.10;;;6.97;61.74;96935.03;5030408;28;20046;-49
2023/12/08 09:22:58;;;;;;;9.47;5.93;;;5.20;93.90;;;7.02;62.04;96932.75;5030378;28;20480;-51
2023/12/08 09:25:26;;;;;;;8.27;4.47;;;5.30;94.30;;;7.04;62.21;96936.06;5028879;28;20072;-51
2023/12/08 09:27:53;;;;;;;11.63;6.40;;;5.30;94.40;;;7.08;61.86;96930.28;5029056;28;20519;-52
2023/12/08 09:30:21;;;;;;;11.27;6.60;;;5.30;94.50;;;7.13;61.85;96924.50;5029096;28;20045;-50
2023/12/08 09:32:51;;;;;;;10.10;5.93;;;5.30;94.50;;;7.17;61.96;96925.03;5031742;28;20045;-50
2023/12/08 09:35:19;;;;;;;9.87;5.90;;;5.40;94.90;;;7.20;61.80;96933.50;5033484;28;20385;-55
2023/12/08 09:37:47;;;;;;;9.10;5.43;;;5.40;95.00;;;7.23;62.04;96930.56;5033824;28;20041;-51
2023/12/08 09:40:15;;;;;;;8.03;5.50;;;5.40;95.00;;;7.28;61.97;96930.88;5033629;28;20045;-51
2023/12/08 09:42:55;;;;;;;12.53;7.10;;;5.50;95.10;;;7.32;62.29;96928.75;5033658;28;20424;-53
2023/12/08 09:45:24;;;;;;;12.37;5.67;;;5.50;94.90;;;7.34;62.02;96926.78;5026989;28;20050;-51
2023/12/08 09:47:56;;;;;;;8.63;6.20;;;5.50;95.20;;;7.37;62.25;96929.13;5033748;28;20416;-53
2023/12/08 09:50:26;;;;;;;7.53;5.53;;;5.50;95.70;;;7.39;62.27;96926.31;5033440;28;20067;-53
2023/12/08 09:52:56;;;;;;;9.73;5.77;;;5.60;95.60;;;7.41;61.96;96919.88;5032959;28;20508;-52
2023/12/08 09:55:24;;;;;;;11.37;5.00;;;5.60;95.90;;;7.46;62.33;96925.53;5032073;28;20448;-53
2023/12/08 09:57:53;;;;;;;7.47;4.50;;;5.70;96.10;;;7.49;62.16;96921.72;5033362;28;20485;-50
2023/12/08 10:00:22;;;;;;;7.83;5.30;;;5.70;95.80;;;7.53;62.47;96924.88;5032281;28;20065;-53
2023/12/08 10:02:49;;;;;;;8.23;5.07;;;5.70;95.90;;;7.55;62.44;96928.19;5031814;28;20413;-50
2023/12/08 10:05:20;;;;;;;7.13;4.70;;;5.80;95.60;;;7.57;62.44;96926.22;5033029;28;20556;-52
2023/12/08 10:07:50;;;;;;;8.57;5.40;;;5.80;95.40;;;7.60;62.57;96926.75;5033260;28;20069;-53
2023/12/08 10:10:19;;;;;;;7.57;4.47;;;5.90;94.70;;;7.63;62.40;96929.03;5033102;28;20052;-52
2023/12/08 10:12:50;;;;;;;7.40;4.57;;;5.90;94.20;;;7.66;62.41;96930.56;5031958;28;20060;-53
2023/12/08 10:15:18;;;;;;;6.63;4.17;;;6.00;93.50;;;7.67;62.49;96924.25;5032796;28;20069;-49
2023/12/08 10:17:51;;;;;;;10.30;6.57;;;6.00;94.00;;;7.71;62.54;96922.94;5033269;28;20194;-52
2023/12/08 10:20:23;;;;;;;10.23;6.20;;;6.00;94.10;;;7.73;62.58;96925.44;5025849;28;20041;-52
2023/12/08 10:22:56;;;;;;;10.27;5.73;;;6.00;94.40;;;7.73;62.57;96922.78;5032647;28;20044;-53
2023/12/08 10:25:29;;;;;;;6.67;4.67;;;6.00;94.50;;;7.77;62.37;96929.44;5032767;28;20045;-52
2023/12/08 10:27:56;;;;;;;7.00;4.03;;;6.00;93.80;;;7.79;62.86;96922.16;5031559;28;20045;-52
2023/12/08 10:30:26;;;;;;;6.73;4.57;;;6.10;93.80;;;7.79;62.75;96930.94;5032933;28;20056;-50
2023/12/08 10:32:54;;;;;;;5.87;3.80;;;6.10;93.80;;;7.81;62.50;96917.50;5032492;28;20041;-54
2023/12/08 10:35:23;;;;;;;6.60;4.03;;;6.10;93.40;;;7.84;62.56;96920.69;5032435;28;20235;-51